Time;durP1;ratioP1;P1;durP2;ratioP2;P2;SDS_P1;SDS_P2;PMS_P1;PMS_P2;Temp;Humidity;BMP_temperature;BMP_pressure;BME280_temperature;BME280_humidity;BME280_pressure;Samples;Min_cycle;Max_cycle;Signal;HPM_P1;HPM_P2
2023/04/12 00:00:58;;;;;;;4.35;1.90;;;;;;;;;;5110733;28;20087;-63
2023/04/12 00:03:25;;;;;;;7.82;1.73;;;;;;;;;;5110971;28;20190;-66
2023/04/12 00:05:53;;;;;;;3.25;1.60;;;;;;;;;;5110859;28;20020;-70
2023/04/12 00:08:25;;;;;;;6.78;1.80;;;;;;;;;;5110802;28;20019;-66
2023/04/12 00:10:50;;;;;;;3.58;1.50;;;;;;;;;;5111141;28;20020;-63
2023/04/12 00:13:16;;;;;;;4.07;1.58;;;;;;;;;;5110803;28;20040;-62
2023/04/12 00:15:41;;;;;;;2.17;1.73;;;;;;;;;;5110468;28;20107;-65
2023/04/12 00:18:07;;;;;;;6.70;1.92;;;;;;;;;;5110931;28;20011;-71
2023/04/12 00:20:32;;;;;;;6.53;1.80;;;;;;;;;;5110683;28;20040;-63
2023/04/12 00:22:58;;;;;;;5.80;1.50;;;;;;;;;;5092383;28;20039;-62
2023/04/12 00:25:23;;;;;;;2.97;1.52;;;;;;;;;;5110841;28;20024;-67
2023/04/12 00:27:49;;;;;;;3.75;1.70;;;;;;;;;;5081193;28;20043;-63
2023/04/12 00:30:15;;;;;;;5.10;1.92;;;;;;;;;;5082608;28;20047;-63
2023/04/12 00:32:41;;;;;;;8.85;2.35;;;;;;;;;;5081479;28;20028;-71
2023/04/12 00:35:06;;;;;;;2.97;1.60;;;;;;;;;;5081725;28;21287;-64
2023/04/12 00:37:32;;;;;;;3.50;1.73;;;;;;;;;;5081211;28;20056;-63
2023/04/12 00:39:58;;;;;;;4.50;2.10;;;;;;;;;;5090542;28;20040;-68
2023/04/12 00:42:23;;;;;;;3.20;1.90;;;;;;;;;;5097840;28;20466;-63
2023/04/12 00:44:48;;;;;;;5.90;1.80;;;;;;;;;;5095828;28;20371;-66
2023/04/12 00:47:14;;;;;;;5.03;1.77;;;;;;;;;;5096648;28;20355;-66
2023/04/12 00:49:40;;;;;;;6.28;1.77;;;;;;;;;;5096927;28;20059;-63
2023/04/12 00:52:14;;;;;;;3.05;2.10;;;;;;;;;;5099512;28;20076;-65
2023/04/12 00:54:41;;;;;;;8.32;3.45;;;;;;;;;;5100598;28;20020;-62
2023/04/12 00:57:06;;;;;;;5.07;2.80;;;;;;;;;;5099710;28;20445;-67
2023/04/12 00:59:32;;;;;;;5.60;2.20;;;;;;;;;;5100337;28;20031;-70
2023/04/12 01:01:58;;;;;;;3.30;1.80;;;;;;;;;;5099365;28;20107;-68
2023/04/12 01:04:27;;;;;;;6.85;2.97;;;;;;;;;;5099729;28;21038;-66
2023/04/12 01:07:02;;;;;;;7.05;2.47;;;;;;;;;;5098276;28;20020;-64
2023/04/12 01:10:07;;;;;;;5.45;2.20;;;;;;;;;;5098595;28;20065;-68
2023/04/12 01:12:41;;;;;;;19.02;8.10;;;;;;;;;;5022758;28;20053;-65
2023/04/12 01:15:10;;;;;;;8.40;3.97;;;;;;;;;;5022417;28;20041;-68
2023/04/12 01:17:48;;;;;;;4.33;2.00;;;;;;;;;;5023658;28;20053;-62
2023/04/12 01:20:17;;;;;;;5.45;2.80;;;;;;;;;;5023482;28;20076;-64
2023/04/12 01:23:04;;;;;;;5.38;2.55;;;;;;;;;;5023002;28;20462;-63
2023/04/12 01:25:51;;;;;;;5.63;2.80;;;;;;;;;;5022761;28;20127;-62
2023/04/12 01:28:22;;;;;;;5.75;2.63;;;;;;;;;;5015164;28;20041;-67
2023/04/12 01:30:50;;;;;;;4.38;2.10;;;;;;;;;;5008762;28;20406;-64
2023/04/12 01:33:17;;;;;;;3.28;1.92;;;;;;;;;;5008465;28;20064;-66
2023/04/12 01:35:43;;;;;;;5.30;2.22;;;;;;;;;;5008778;28;20038;-62
2023/04/12 01:38:09;;;;;;;6.40;2.47;;;;;;;;;;5008746;28;20033;-62
2023/04/12 01:40:35;;;;;;;4.30;2.20;;;;;;;;;;5007927;28;20372;-66
2023/04/12 01:43:09;;;;;;;6.18;2.13;;;;;;;;;;5007942;28;20072;-62
2023/04/12 01:45:34;;;;;;;4.78;2.47;;;;;;;;;;5008294;28;20064;-62
2023/04/12 01:48:01;;;;;;;3.78;2.10;;;;;;;;;;5009627;28;20124;-63
2023/04/12 01:51:06;;;;;;;5.88;2.60;;;;;;;;;;5084316;28;20050;-63
2023/04/12 01:53:44;;;;;;;6.53;2.60;;;;;;;;;;5071014;28;20221;-66
2023/04/12 01:56:11;;;;;;;7.65;3.03;;;;;;;;;;5084889;28;20504;-69
2023/04/12 01:58:38;;;;;;;5.32;2.67;;;;;;;;;;5084549;27;20088;-67
2023/04/12 02:01:06;;;;;;;5.90;2.50;;;;;;;;;;5084471;27;20028;-62
2023/04/12 02:03:32;;;;;;;9.65;3.20;;;;;;;;;;5083511;28;21096;-62
2023/04/12 02:05:58;;;;;;;9.35;2.70;;;;;;;;;;5084458;28;20043;-64
2023/04/12 02:08:25;;;;;;;7.63;3.20;;;;;;;;;;5084702;28;20042;-66
2023/04/12 02:10:50;;;;;;;5.78;2.55;;;;;;;;;;5086399;28;20080;-64
2023/04/12 02:13:19;;;;;;;9.40;2.65;;;;;;;;;;5098338;28;20397;-64
2023/04/12 02:15:45;;;;;;;6.35;3.70;;;;;;;;;;5095859;28;20026;-63
2023/04/12 02:18:12;;;;;;;5.43;2.95;;;;;;;;;;5096791;28;20023;-66
2023/04/12 02:20:38;;;;;;;8.70;4.00;;;;;;;;;;5098362;28;20031;-62
2023/04/12 02:23:03;;;;;;;7.85;3.55;;;;;;;;;;5097126;28;20026;-65
2023/04/12 02:25:29;;;;;;;7.93;2.90;;;;;;;;;;5096408;28;20463;-63
2023/04/12 02:27:55;;;;;;;7.15;3.08;;;;;;;;;;5083260;28;20302;-63
2023/04/12 02:30:21;;;;;;;6.18;2.78;;;;;;;;;;5083985;27;20415;-63
2023/04/12 02:32:47;;;;;;;4.75;2.65;;;;;;;;;;5084973;28;20925;-63
2023/04/12 02:35:16;;;;;;;10.13;2.92;;;;;;;;;;5091276;28;20047;-63
2023/04/12 02:37:43;;;;;;;7.45;3.00;;;;;;;;;;5096753;28;20080;-64
2023/04/12 02:40:10;;;;;;;7.68;2.97;;;;;;;;;;5097506;28;20090;-64
2023/04/12 02:42:36;;;;;;;5.43;2.72;;;;;;;;;;5097817;28;20413;-62
2023/04/12 02:45:02;;;;;;;8.60;2.88;;;;;;;;;;5097550;28;20027;-62
2023/04/12 02:47:28;;;;;;;6.10;2.80;;;;;;;;;;5097000;28;20103;-70
2023/04/12 02:49:54;;;;;;;6.60;2.88;;;;;;;;;;5097440;28;20031;-63
2023/04/12 02:52:20;;;;;;;5.72;2.80;;;;;;;;;;5095843;28;20425;-63
2023/04/12 02:54:46;;;;;;;5.13;2.67;;;;;;;;;;5097226;28;20098;-69
2023/04/12 02:57:11;;;;;;;5.32;2.78;;;;;;;;;;5080169;28;20062;-65
2023/04/12 02:59:38;;;;;;;11.30;6.47;;;;;;;;;;5096066;28;20020;-62
2023/04/12 03:02:03;;;;;;;5.88;3.30;;;;;;;;;;5095551;28;20030;-62
2023/04/12 03:04:29;;;;;;;6.40;3.42;;;;;;;;;;5095433;28;20031;-63
2023/04/12 03:06:57;;;;;;;5.88;3.53;;;;;;;;;;5097480;28;20028;-62
2023/04/12 03:09:24;;;;;;;14.65;3.60;;;;;;;;;;5096529;28;20031;-62
2023/04/12 03:11:50;;;;;;;11.77;3.75;;;;;;;;;;5097425;28;20046;-63
2023/04/12 03:14:16;;;;;;;5.80;3.38;;;;;;;;;;5094157;28;20016;-62
2023/04/12 03:16:42;;;;;;;8.18;3.38;;;;;;;;;;5094183;28;20440;-62
2023/04/12 03:19:08;;;;;;;7.45;3.28;;;;;;;;;;5095795;28;20032;-63
2023/04/12 03:21:34;;;;;;;5.95;3.38;;;;;;;;;;5095130;28;20039;-64
2023/04/12 03:24:00;;;;;;;13.02;3.67;;;;;;;;;;5095031;28;20508;-65
2023/04/12 03:26:26;;;;;;;9.13;3.50;;;;;;;;;;5089603;28;20027;-63
2023/04/12 03:29:09;;;;;;;6.72;3.42;;;;;;;;;;5067497;28;20041;-63
2023/04/12 03:31:35;;;;;;;8.52;3.90;;;;;;;;;;5083477;28;20409;-62
2023/04/12 03:34:01;;;;;;;13.32;3.85;;;;;;;;;;5083304;28;20035;-62
2023/04/12 03:36:26;;;;;;;7.65;3.53;;;;;;;;;;5083085;28;20295;-66
2023/04/12 03:38:52;;;;;;;9.80;4.50;;;;;;;;;;5095440;28;20070;-63
2023/04/12 03:41:21;;;;;;;9.05;4.07;;;;;;;;;;5097311;28;20668;-62
2023/04/12 03:43:46;;;;;;;7.82;4.00;;;;;;;;;;5094859;28;20024;-66
2023/04/12 03:46:14;;;;;;;8.48;4.22;;;;;;;;;;5097057;28;20031;-63
2023/04/12 03:48:40;;;;;;;7.03;4.03;;;;;;;;;;5096220;28;20027;-62
2023/04/12 03:51:06;;;;;;;7.95;4.18;;;;;;;;;;5079874;28;20024;-62
2023/04/12 03:53:32;;;;;;;8.15;5.20;;;;;;;;;;5079379;28;20397;-62
2023/04/12 03:55:58;;;;;;;12.35;4.47;;;;;;;;;;5095783;28;20023;-63
2023/04/12 03:58:24;;;;;;;7.50;5.00;;;;;;;;;;5097283;28;21101;-62
2023/04/12 04:00:50;;;;;;;9.10;4.50;;;;;;;;;;5096292;28;20048;-63
2023/04/12 04:03:17;;;;;;;6.80;4.63;;;;;;;;;;5097121;28;20497;-66
2023/04/12 04:05:42;;;;;;;9.40;5.45;;;;;;;;;;5095535;28;20401;-65
2023/04/12 04:08:08;;;;;;;8.80;4.10;;;;;;;;;;5095208;28;20019;-65
2023/04/12 04:10:34;;;;;;;10.15;4.75;;;;;;;;;;5094781;28;20027;-63
2023/04/12 04:12:59;;;;;;;15.93;5.22;;;;;;;;;;5095319;28;20028;-64
2023/04/12 04:15:25;;;;;;;11.63;4.43;;;;;;;;;;5094672;28;20027;-62
2023/04/12 04:17:51;;;;;;;10.15;5.15;;;;;;;;;;5098278;28;20485;-63
2023/04/12 04:20:17;;;;;;;9.25;4.75;;;;;;;;;;5095432;28;20020;-62
2023/04/12 04:22:44;;;;;;;8.38;4.60;;;;;;;;;;5094932;28;20022;-63
2023/04/12 04:25:12;;;;;;;7.88;5.22;;;;;;;;;;5095114;28;20058;-67
2023/04/12 04:27:39;;;;;;;10.90;5.57;;;;;;;;;;5105836;28;20027;-62
2023/04/12 04:30:05;;;;;;;7.80;4.65;;;;;;;;;;5105569;28;20028;-66
2023/04/12 04:32:32;;;;;;;9.10;4.53;;;;;;;;;;5115841;28;20027;-65
2023/04/12 04:34:58;;;;;;;6.90;4.13;;;;;;;;;;5115740;28;20047;-64
2023/04/12 04:37:25;;;;;;;11.35;4.72;;;;;;;;;;5115995;28;20473;-63
2023/04/12 04:39:50;;;;;;;8.88;4.85;;;;;;;;;;5116110;28;20028;-62
2023/04/12 04:42:16;;;;;;;10.63;4.35;;;;;;;;;;5116077;28;20035;-64
2023/04/12 04:44:41;;;;;;;8.90;4.22;;;;;;;;;;5115947;28;20393;-66
2023/04/12 04:47:07;;;;;;;8.55;4.00;;;;;;;;;;5137993;22;20048;-67
2023/04/12 04:49:32;;;;;;;6.05;3.95;;;;;;;;;;5115899;28;20023;-63
2023/04/12 04:51:58;;;;;;;7.57;3.83;;;;;;;;;;5115673;28;20088;-65
2023/04/12 04:54:23;;;;;;;6.93;3.65;;;;;;;;;;5115802;28;20027;-63
2023/04/12 04:56:49;;;;;;;6.35;3.97;;;;;;;;;;5115822;28;20055;-70
2023/04/12 04:59:16;;;;;;;5.60;3.70;;;;;;;;;;5115487;28;20054;-67
2023/04/12 05:01:42;;;;;;;8.07;3.67;;;;;;;;;;5115452;28;20023;-63
2023/04/12 05:04:07;;;;;;;7.35;4.03;;;;;;;;;;5115442;28;20081;-67
2023/04/12 05:06:33;;;;;;;6.90;3.60;;;;;;;;;;5115422;28;20085;-66
2023/04/12 05:09:00;;;;;;;7.53;3.85;;;;;;;;;;5115439;28;20047;-64
2023/04/12 05:11:26;;;;;;;8.05;4.00;;;;;;;;;;5115441;28;20437;-62
2023/04/12 05:13:51;;;;;;;10.90;3.78;;;;;;;;;;5115401;28;20055;-62
2023/04/12 05:16:17;;;;;;;10.82;4.13;;;;;;;;;;5115519;28;20107;-64
2023/04/12 05:18:43;;;;;;;8.55;3.70;;;;;;;;;;5115186;28;20034;-65
2023/04/12 05:21:08;;;;;;;9.48;3.97;;;;;;;;;;5114933;28;20380;-63
2023/04/12 05:23:36;;;;;;;7.60;4.15;;;;;;;;;;5115421;28;20036;-66
2023/04/12 05:26:01;;;;;;;8.55;3.60;;;;;;;;;;5111247;28;20025;-62
2023/04/12 05:28:27;;;;;;;6.88;3.78;;;;;;;;;;5086702;28;20474;-62
2023/04/12 05:30:52;;;;;;;8.98;4.53;;;;;;;;;;5084770;28;20423;-64
2023/04/12 05:33:17;;;;;;;8.63;3.60;;;;;;;;;;5091214;28;20506;-62
2023/04/12 05:35:43;;;;;;;8.52;4.43;;;;;;;;;;5098673;27;20758;-62
2023/04/12 05:38:08;;;;;;;5.68;3.15;;;;;;;;;;5098013;28;20471;-63
2023/04/12 05:40:35;;;;;;;5.45;3.67;;;;;;;;;;5097689;28;20046;-63
2023/04/12 05:43:01;;;;;;;11.13;4.25;;;;;;;;;;5097992;28;20041;-64
2023/04/12 05:45:27;;;;;;;13.15;4.38;;;;;;;;;;5096775;28;20031;-62
2023/04/12 05:47:54;;;;;;;9.02;4.03;;;;;;;;;;5096959;28;20044;-63
2023/04/12 05:50:19;;;;;;;5.82;3.33;;;;;;;;;;5098176;28;20036;-62
2023/04/12 05:52:47;;;;;;;6.95;4.10;;;;;;;;;;5098713;28;20084;-62
2023/04/12 05:55:13;;;;;;;5.53;3.90;;;;;;;;;;5098409;28;20516;-64
2023/04/12 05:57:38;;;;;;;8.10;3.83;;;;;;;;;;5097928;28;20028;-64
2023/04/12 06:00:09;;;;;;;9.57;4.32;;;;;;;;;;5096759;28;20024;-65
2023/04/12 06:02:35;;;;;;;6.65;3.42;;;;;;;;;;5097173;28;20474;-65
2023/04/12 06:05:02;;;;;;;6.88;4.10;;;;;;;;;;5097556;28;20535;-63
2023/04/12 06:07:27;;;;;;;7.72;4.00;;;;;;;;;;5098016;28;20012;-63
2023/04/12 06:09:53;;;;;;;9.20;3.97;;;;;;;;;;5098360;28;20567;-63
2023/04/12 06:12:18;;;;;;;6.18;3.30;;;;;;;;;;5098306;28;20478;-63
2023/04/12 06:14:44;;;;;;;7.50;3.75;;;;;;;;;;5097822;28;20035;-67
2023/04/12 06:17:09;;;;;;;6.85;3.97;;;;;;;;;;5096348;28;20466;-64
2023/04/12 06:19:34;;;;;;;8.02;4.00;;;;;;;;;;5096879;28;20482;-63
2023/04/12 06:22:00;;;;;;;8.48;3.78;;;;;;;;;;5098069;28;20024;-64
2023/04/12 06:24:25;;;;;;;5.80;3.55;;;;;;;;;;5097383;28;20077;-62
2023/04/12 06:26:51;;;;;;;7.45;3.65;;;;;;;;;;5089413;28;20114;-62
2023/04/12 06:29:16;;;;;;;5.00;3.70;;;;;;;;;;5083865;27;20377;-62
2023/04/12 06:31:41;;;;;;;9.90;4.00;;;;;;;;;;5083751;28;20400;-67
2023/04/12 06:34:07;;;;;;;8.30;3.63;;;;;;;;;;5083910;28;20046;-63
2023/04/12 06:36:32;;;;;;;8.82;4.18;;;;;;;;;;5098479;28;20167;-64
2023/04/12 06:38:58;;;;;;;7.43;3.58;;;;;;;;;;5095428;28;20027;-63
2023/04/12 06:41:24;;;;;;;7.88;3.60;;;;;;;;;;5097732;28;20038;-65
2023/04/12 06:43:49;;;;;;;7.35;3.53;;;;;;;;;;5097716;28;20462;-63
2023/04/12 06:46:17;;;;;;;4.13;2.75;;;;;;;;;;5097385;28;20035;-65
2023/04/12 06:48:43;;;;;;;6.47;2.80;;;;;;;;;;5095216;28;20036;-64
2023/04/12 06:51:10;;;;;;;8.23;2.97;;;;;;;;;;5095837;28;20031;-64
2023/04/12 06:53:38;;;;;;;6.63;2.70;;;;;;;;;;5094744;28;20026;-64
2023/04/12 06:56:04;;;;;;;5.30;2.42;;;;;;;;;;5095814;28;20111;-63
2023/04/12 06:58:30;;;;;;;6.25;2.58;;;;;;;;;;5097207;28;20089;-62
2023/04/12 07:01:06;;;;;;;6.82;2.72;;;;;;;;;;5093475;28;20026;-70
2023/04/12 07:03:33;;;;;;;4.45;2.05;;;;;;;;;;5106107;28;20034;-62
2023/04/12 07:06:01;;;;;;;9.38;2.90;;;;;;;;;;5109156;28;20030;-62
2023/04/12 07:08:31;;;;;;;7.93;2.47;;;;;;;;;;5109330;28;20020;-72
2023/04/12 07:10:57;;;;;;;4.82;2.45;;;;;;;;;;5112293;28;20031;-62
2023/04/12 07:13:22;;;;;;;6.47;2.40;;;;;;;;;;5112319;28;20035;-62
2023/04/12 07:15:49;;;;;;;5.95;2.08;;;;;;;;;;5111890;28;20032;-62
2023/04/12 07:18:15;;;;;;;5.90;2.65;;;;;;;;;;5112231;28;20038;-64
2023/04/12 07:20:41;;;;;;;4.50;2.20;;;;;;;;;;5112242;28;20470;-64
2023/04/12 07:23:06;;;;;;;6.68;2.40;;;;;;;;;;5112047;28;20053;-67
2023/04/12 07:25:31;;;;;;;7.70;2.70;;;;;;;;;;5112051;28;20024;-64
2023/04/12 07:27:57;;;;;;;6.22;2.22;;;;;;;;;;5112040;28;20020;-62
2023/04/12 07:30:22;;;;;;;12.70;3.33;;;;;;;;;;5111801;28;20024;-63
2023/04/12 07:32:48;;;;;;;6.43;2.85;;;;;;;;;;5112065;28;20062;-62
2023/04/12 07:35:13;;;;;;;6.65;2.65;;;;;;;;;;5111856;28;20504;-65
2023/04/12 07:37:39;;;;;;;6.40;2.70;;;;;;;;;;5111839;28;20023;-65
2023/04/12 07:40:05;;;;;;;5.93;2.67;;;;;;;;;;5111741;28;20031;-62
2023/04/12 07:42:31;;;;;;;8.75;2.60;;;;;;;;;;5111877;28;20031;-65
2023/04/12 07:44:57;;;;;;;5.03;2.70;;;;;;;;;;5111554;28;20028;-62
2023/04/12 07:47:22;;;;;;;9.02;3.55;;;;;;;;;;5063778;28;1360017;-61
2023/04/12 07:49:48;;;;;;;7.22;2.70;;;;;;;;;;5112212;28;20038;-61
2023/04/12 07:52:13;;;;;;;5.45;2.63;;;;;;;;;;5112409;28;20122;-62
2023/04/12 07:54:38;;;;;;;7.55;3.30;;;;;;;;;;5112524;28;20030;-62
2023/04/12 07:57:04;;;;;;;5.43;2.90;;;;;;;;;;5111780;28;20493;-72
2023/04/12 07:59:30;;;;;;;4.60;2.53;;;;;;;;;;5111603;28;20104;-62
2023/04/12 08:01:56;;;;;;;7.18;2.78;;;;;;;;;;5114054;28;20032;-62
2023/04/12 08:04:21;;;;;;;10.05;3.03;;;;;;;;;;5116560;28;20023;-62
2023/04/12 08:06:47;;;;;;;7.03;2.70;;;;;;;;;;5116597;28;20028;-66
2023/04/12 08:09:12;;;;;;;6.95;2.88;;;;;;;;;;5116640;28;20020;-63
2023/04/12 08:11:38;;;;;;;8.13;3.60;;;;;;;;;;5114778;28;20490;-63
2023/04/12 08:14:03;;;;;;;6.35;2.10;;;;;;;;;;5114464;28;20031;-63
2023/04/12 08:16:28;;;;;;;7.03;2.50;;;;;;;;;;5114825;28;20027;-62
2023/04/12 08:18:55;;;;;;;5.68;2.85;;;;;;;;;;5115485;28;20024;-64
2023/04/12 08:21:22;;;;;;;7.95;2.33;;;;;;;;;;5115517;28;20458;-62
2023/04/12 08:23:49;;;;;;;7.80;2.67;;;;;;;;;;5115233;28;20028;-64
2023/04/12 08:26:15;;;;;;;4.63;2.30;;;;;;;;;;5115954;28;20023;-66
2023/04/12 08:28:41;;;;;;;6.03;2.30;;;;;;;;;;5116027;28;20023;-61
2023/04/12 08:31:07;;;;;;;7.85;2.15;;;;;;;;;;5116077;28;20035;-65
2023/04/12 08:33:32;;;;;;;7.80;2.45;;;;;;;;;;5116179;28;20382;-62
2023/04/12 08:35:58;;;;;;;7.28;2.53;;;;;;;;;;5116039;28;20192;-63
2023/04/12 08:38:23;;;;;;;7.63;1.80;;;;;;;;;;5116027;28;20073;-63
2023/04/12 08:40:49;;;;;;;4.18;1.50;;;;;;;;;;5115989;28;20033;-62
2023/04/12 08:43:17;;;;;;;4.35;2.17;;;;;;;;;;5115713;28;20023;-64
2023/04/12 08:45:42;;;;;;;6.43;2.13;;;;;;;;;;5116025;28;20112;-63
2023/04/12 08:48:08;;;;;;;5.88;1.98;;;;;;;;;;5115829;28;20414;-67
2023/04/12 08:50:34;;;;;;;7.18;2.30;;;;;;;;;;5115831;28;20032;-62
2023/04/12 08:52:59;;;;;;;8.07;2.33;;;;;;;;;;5115977;28;20386;-63
2023/04/12 08:55:25;;;;;;;4.32;1.90;;;;;;;;;;5115939;28;20031;-63
2023/04/12 08:57:54;;;;;;;4.65;2.10;;;;;;;;;;5115448;28;20024;-64
2023/04/12 09:00:21;;;;;;;6.47;2.30;;;;;;;;;;5115779;28;20077;-63
2023/04/12 09:02:47;;;;;;;5.88;2.00;;;;;;;;;;5107580;27;20038;-64
2023/04/12 09:05:13;;;;;;;3.20;1.65;;;;;;;;;;5114934;28;20019;-65
2023/04/12 09:07:40;;;;;;;3.05;1.77;;;;;;;;;;5111964;28;20019;-65
2023/04/12 09:10:06;;;;;;;4.70;1.80;;;;;;;;;;5112375;28;20054;-62
2023/04/12 09:12:32;;;;;;;5.95;1.73;;;;;;;;;;5111999;28;20030;-64
2023/04/12 09:15:12;;;;;;;3.75;1.70;;;;;;;;;;5112650;28;20020;-62
2023/04/12 09:17:39;;;;;;;4.07;1.80;;;;;;;;;;5112663;28;20024;-65
2023/04/12 09:20:16;;;;;;;4.85;1.92;;;;;;;;;;5112533;28;20028;-66
2023/04/12 09:22:43;;;;;;;3.53;2.00;;;;;;;;;;5112758;28;20355;-63
2023/04/12 09:25:09;;;;;;;3.90;1.60;;;;;;;;;;5112240;28;20056;-68
2023/04/12 09:27:46;;;;;;;6.07;1.50;;;;;;;;;;5112143;28;20062;-62
2023/04/12 09:30:12;;;;;;;2.72;1.58;;;;;;;;;;5111887;28;20474;-65
2023/04/12 09:32:38;;;;;;;3.08;1.40;;;;;;;;;;5112392;28;20055;-63
2023/04/12 09:35:04;;;;;;;4.35;1.60;;;;;;;;;;5112038;28;20062;-64
2023/04/12 09:37:30;;;;;;;3.35;1.42;;;;;;;;;;5109284;28;20024;-66
2023/04/12 09:40:03;;;;;;;3.78;1.77;;;;;;;;;;5105924;28;20069;-62
2023/04/12 09:42:29;;;;;;;4.70;1.70;;;;;;;;;;5110855;28;20042;-64
2023/04/12 09:44:56;;;;;;;5.55;1.77;;;;;;;;;;5110395;28;20035;-63
2023/04/12 09:47:35;;;;;;;4.28;1.45;;;;;;;;;;5110987;28;20043;-65
2023/04/12 09:50:03;;;;;;;4.40;1.50;;;;;;;;;;5110407;28;20015;-62
2023/04/12 09:52:37;;;;;;;3.30;1.60;;;;;;;;;;5111025;28;20058;-65
2023/04/12 09:55:08;;;;;;;3.95;1.77;;;;;;;;;;5111457;28;20027;-63
2023/04/12 09:57:39;;;;;;;5.05;1.92;;;;;;;;;;5092928;28;20029;-62
2023/04/12 10:00:11;;;;;;;4.18;1.90;;;;;;;;;;5111007;28;20546;-62
2023/04/12 10:02:38;;;;;;;3.42;1.40;;;;;;;;;;5108642;28;20026;-66
2023/04/12 10:05:05;;;;;;;4.28;1.65;;;;;;;;;;5110479;28;20442;-65
2023/04/12 10:07:31;;;;;;;4.70;1.85;;;;;;;;;;5110179;28;20032;-63
2023/04/12 10:09:58;;;;;;;4.25;1.70;;;;;;;;;;5109662;28;20031;-66
2023/04/12 10:12:24;;;;;;;3.00;1.63;;;;;;;;;;5110124;28;20043;-62
2023/04/12 10:14:51;;;;;;;3.45;1.40;;;;;;;;;;5109806;28;20028;-63
2023/04/12 10:17:19;;;;;;;3.42;1.70;;;;;;;;;;5110471;28;20067;-64
2023/04/12 10:19:46;;;;;;;5.05;1.88;;;;;;;;;;5109629;28;20147;-66
2023/04/12 10:22:12;;;;;;;6.22;1.95;;;;;;;;;;5110037;28;20028;-63
2023/04/12 10:24:37;;;;;;;4.18;1.85;;;;;;;;;;5108756;28;20035;-63
2023/04/12 10:27:04;;;;;;;2.92;1.52;;;;;;;;;;5110091;28;20019;-62
2023/04/12 10:29:35;;;;;;;5.22;2.00;;;;;;;;;;5109511;28;20035;-62
2023/04/12 10:32:23;;;;;;;2.42;1.30;;;;;;;;;;5109424;28;20542;-62
2023/04/12 10:34:57;;;;;;;3.90;1.77;;;;;;;;;;5109685;28;20027;-65
2023/04/12 10:38:01;;;;;;;5.93;1.90;;;;;;;;;;5108619;28;20449;-62
2023/04/12 10:40:30;;;;;;;3.97;1.50;;;;;;;;;;5109326;28;21483;-63
2023/04/12 10:43:23;;;;;;;3.58;1.55;;;;;;;;;;5109154;28;20051;-63
2023/04/12 10:45:49;;;;;;;3.13;1.90;;;;;;;;;;5109237;28;20028;-64
2023/04/12 10:48:34;;;;;;;4.07;2.33;;;;;;;;;;5110049;28;20094;-64
2023/04/12 10:51:24;;;;;;;4.32;1.90;;;;;;;;;;5108823;28;20031;-63
2023/04/12 10:53:51;;;;;;;4.47;1.67;;;;;;;;;;5109334;28;20023;-64
2023/04/12 10:56:28;;;;;;;3.65;2.22;;;;;;;;;;5109896;28;20023;-64
2023/04/12 10:58:54;;;;;;;4.65;2.08;;;;;;;;;;5109519;28;20027;-62
2023/04/12 11:01:20;;;;;;;4.85;2.20;;;;;;;;;;5090595;28;20020;-65
2023/04/12 11:04:08;;;;;;;4.10;1.85;;;;;;;;;;5108000;28;20110;-66
2023/04/12 11:06:41;;;;;;;5.30;2.20;;;;;;;;;;5109714;28;20026;-62
2023/04/12 11:09:19;;;;;;;2.80;1.63;;;;;;;;;;5109180;28;20483;-62
2023/04/12 11:11:45;;;;;;;8.60;2.00;;;;;;;;;;5108339;28;20027;-62
2023/04/12 11:14:13;;;;;;;4.05;1.92;;;;;;;;;;5109610;28;20024;-62
2023/04/12 11:17:15;;;;;;;3.80;1.40;;;;;;;;;;5108488;28;20034;-63
2023/04/12 11:19:54;;;;;;;4.18;1.80;;;;;;;;;;5108911;28;20024;-70
2023/04/12 11:22:21;;;;;;;3.83;1.52;;;;;;;;;;5108277;28;20474;-63
2023/04/12 11:25:07;;;;;;;3.78;1.85;;;;;;;;;;5108720;28;20382;-66
2023/04/12 11:27:33;;;;;;;3.53;1.40;;;;;;;;;;5108802;28;20034;-62
2023/04/12 11:30:00;;;;;;;2.58;1.40;;;;;;;;;;5109019;28;20035;-62
2023/04/12 11:32:27;;;;;;;3.55;1.50;;;;;;;;;;5108328;28;20039;-62
2023/04/12 11:34:55;;;;;;;2.50;1.60;;;;;;;;;;5108453;28;20108;-62
2023/04/12 11:37:22;;;;;;;4.05;1.40;;;;;;;;;;5106908;28;20107;-62
2023/04/12 11:39:50;;;;;;;2.28;1.40;;;;;;;;;;5107709;28;20036;-62
2023/04/12 11:42:19;;;;;;;3.03;2.10;;;;;;;;;;5108459;28;20081;-65
2023/04/12 11:44:45;;;;;;;7.78;2.33;;;;;;;;;;5108072;28;20092;-66
2023/04/12 11:47:19;;;;;;;4.97;1.80;;;;;;;;;;5106202;28;20055;-61
2023/04/12 11:49:45;;;;;;;5.32;2.00;;;;;;;;;;5108079;28;20450;-65
2023/04/12 11:52:11;;;;;;;5.68;1.60;;;;;;;;;;5108173;28;20023;-65
2023/04/12 11:54:41;;;;;;;7.03;2.08;;;;;;;;;;5108777;28;20027;-62
2023/04/12 11:57:09;;;;;;;4.10;1.48;;;;;;;;;;5107310;28;20020;-66
2023/04/12 11:59:36;;;;;;;3.70;1.60;;;;;;;;;;5106579;28;20385;-62
2023/04/12 12:02:03;;;;;;;3.53;1.33;;;;;;;;;;5108290;28;20024;-66
2023/04/12 12:04:30;;;;;;;3.30;1.35;;;;;;;;;;5108149;28;20435;-62
2023/04/12 12:06:57;;;;;;;3.05;1.40;;;;;;;;;;5107850;28;20943;-63
2023/04/12 12:09:23;;;;;;;3.88;1.65;;;;;;;;;;5108149;28;20027;-63
2023/04/12 12:11:50;;;;;;;3.60;1.70;;;;;;;;;;5106781;28;20104;-62
2023/04/12 12:14:22;;;;;;;2.53;1.30;;;;;;;;;;5108132;28;20028;-62
2023/04/12 12:16:53;;;;;;;3.70;1.38;;;;;;;;;;5107729;28;20496;-63
2023/04/12 12:19:35;;;;;;;3.00;1.00;;;;;;;;;;5108034;28;20123;-62
2023/04/12 12:22:33;;;;;;;4.88;1.50;;;;;;;;;;5107042;28;20047;-66
2023/04/12 12:24:59;;;;;;;4.15;1.17;;;;;;;;;;5005550;28;20184;-62
2023/04/12 12:27:37;;;;;;;3.88;1.33;;;;;;;;;;5005383;28;20554;-66
2023/04/12 12:30:06;;;;;;;2.30;1.23;;;;;;;;;;5005830;28;20033;-62
2023/04/12 12:32:37;;;;;;;1.50;0.98;;;;;;;;;;5005958;28;20508;-62
2023/04/12 12:35:11;;;;;;;1.95;1.05;;;;;;;;;;5005596;28;20033;-63
2023/04/12 12:37:37;;;;;;;2.75;1.30;;;;;;;;;;5005651;28;20038;-64
2023/04/12 12:40:12;;;;;;;3.65;1.30;;;;;;;;;;5005726;28;20048;-62
2023/04/12 12:42:45;;;;;;;2.60;1.45;;;;;;;;;;5005735;28;20057;-62
2023/04/12 12:45:15;;;;;;;2.45;1.20;;;;;;;;;;5005569;28;20041;-62
2023/04/12 12:47:45;;;;;;;3.38;1.10;;;;;;;;;;5005554;28;20550;-66
2023/04/12 12:50:13;;;;;;;;;;;;;;;;;;5009098;28;20400;-63
2023/04/12 12:52:38;;;;;;;3.63;1.30;;;;;;;;;;5009488;28;19920;-63
2023/04/12 12:55:04;;;;;;;2.45;1.20;;;;;;;;;;5009400;28;20042;-64
2023/04/12 12:57:30;;;;;;;2.70;1.20;;;;;;;;;;5008801;28;20455;-62
2023/04/12 12:59:56;;;;;;;2.15;1.10;;;;;;;;;;5033304;28;20101;-63
2023/04/12 13:02:21;;;;;;;3.97;1.20;;;;;;;;;;5111572;28;20385;-62
2023/04/12 13:04:46;;;;;;;2.53;1.23;;;;;;;;;;5110876;28;20034;-63
2023/04/12 13:07:12;;;;;;;3.85;1.35;;;;;;;;;;5111228;28;20027;-64
2023/04/12 13:09:37;;;;;;;2.08;1.42;;;;;;;;;;5110979;28;20023;-63
2023/04/12 13:12:03;;;;;;;3.13;1.35;;;;;;;;;;5111760;28;20034;-68
2023/04/12 13:14:29;;;;;;;2.28;1.67;;;;;;;;;;5111058;28;20016;-62
2023/04/12 13:16:55;;;;;;;3.70;1.35;;;;;;;;;;5111017;28;20125;-65
2023/04/12 13:19:20;;;;;;;4.15;1.05;;;;;;;;;;5110844;28;20047;-66
2023/04/12 13:21:46;;;;;;;2.53;1.13;;;;;;;;;;5110601;28;20428;-63
2023/04/12 13:24:11;;;;;;;3.78;1.38;;;;;;;;;;5110836;28;20471;-64
2023/04/12 13:26:37;;;;;;;2.67;1.33;;;;;;;;;;5111181;28;20031;-63
2023/04/12 13:29:02;;;;;;;4.10;1.10;;;;;;;;;;5111412;28;20016;-63
2023/04/12 13:31:27;;;;;;;1.65;0.93;;;;;;;;;;5110534;28;20038;-63
2023/04/12 13:33:53;;;;;;;4.88;1.15;;;;;;;;;;5110342;28;20032;-63
2023/04/12 13:36:18;;;;;;;2.92;1.10;;;;;;;;;;5110598;28;20198;-63
2023/04/12 13:38:44;;;;;;;1.45;0.80;;;;;;;;;;5110694;28;20122;-62
2023/04/12 13:41:09;;;;;;;2.28;1.00;;;;;;;;;;5110417;28;20111;-62
2023/04/12 13:43:35;;;;;;;4.35;1.15;;;;;;;;;;5110942;28;20026;-63
2023/04/12 13:46:00;;;;;;;2.92;1.05;;;;;;;;;;5110320;28;20039;-64
2023/04/12 13:48:26;;;;;;;4.05;1.10;;;;;;;;;;5110006;28;21458;-62
2023/04/12 13:50:51;;;;;;;2.78;1.10;;;;;;;;;;5110330;28;20032;-67
2023/04/12 13:53:16;;;;;;;2.03;0.95;;;;;;;;;;5110320;28;20012;-63
2023/04/12 13:55:42;;;;;;;4.85;1.35;;;;;;;;;;5110106;28;20031;-62
2023/04/12 13:58:07;;;;;;;7.10;1.10;;;;;;;;;;5110020;28;20388;-66
2023/04/12 14:00:33;;;;;;;2.30;1.23;;;;;;;;;;5109610;28;20094;-63
2023/04/12 14:02:59;;;;;;;3.00;1.20;;;;;;;;;;5109761;28;20028;-62
2023/04/12 14:05:25;;;;;;;3.22;1.48;;;;;;;;;;5110050;28;20039;-66
2023/04/12 14:07:51;;;;;;;1.95;0.90;;;;;;;;;;5109972;28;20035;-63
2023/04/12 14:10:16;;;;;;;2.20;1.20;;;;;;;;;;5109506;28;20057;-65
2023/04/12 14:12:42;;;;;;;3.17;1.50;;;;;;;;;;5109421;28;20554;-63
2023/04/12 14:15:08;;;;;;;3.00;1.02;;;;;;;;;;5109841;28;20023;-63
2023/04/12 14:17:33;;;;;;;5.95;1.42;;;;;;;;;;5108513;28;20047;-63
2023/04/12 14:19:59;;;;;;;4.63;1.30;;;;;;;;;;5109375;28;20031;-65
2023/04/12 14:22:24;;;;;;;3.42;0.93;;;;;;;;;;5109886;28;20035;-63
2023/04/12 14:24:50;;;;;;;1.60;1.00;;;;;;;;;;5109442;28;20119;-62
2023/04/12 14:27:15;;;;;;;4.72;0.98;;;;;;;;;;5110228;28;20035;-63
2023/04/12 14:29:41;;;;;;;2.72;1.08;;;;;;;;;;5109307;28;20427;-63
2023/04/12 14:32:07;;;;;;;1.77;1.25;;;;;;;;;;5109708;28;20027;-62
2023/04/12 14:34:33;;;;;;;2.08;0.88;;;;;;;;;;5109930;28;20019;-63
2023/04/12 14:36:59;;;;;;;3.08;1.20;;;;;;;;;;5109089;28;20071;-63
2023/04/12 14:39:25;;;;;;;2.88;1.73;;;;;;;;;;5109918;28;20022;-64
2023/04/12 14:41:51;;;;;;;2.75;1.40;;;;;;;;;;5109410;28;20028;-62
2023/04/12 14:44:16;;;;;;;5.18;1.88;;;;;;;;;;5109385;28;20023;-62
2023/04/12 14:46:42;;;;;;;2.20;1.20;;;;;;;;;;5108831;28;20034;-63